Time;durP1;ratioP1;P1;durP2;ratioP2;P2;SDS_P1;SDS_P2;PMS_P1;PMS_P2;Temp;Humidity;BMP_temperature;BMP_pressure;BME280_temperature;BME280_humidity;BME280_pressure;Samples;Min_cycle;Max_cycle;Signal;HPM_P1;HPM_P2
2022/06/18 00:00:19;;;;;;;;;13.00;13.00;;;;;30.27;34.01;101356.28;2083292;27;47799;-60
2022/06/18 00:01:19;;;;;;;;;14.00;13.00;;;;;30.24;34.11;101346.50;2096589;28;46137;-61
2022/06/18 00:02:20;;;;;;;;;12.75;12.75;;;;;30.25;34.03;101344.63;2097720;28;47541;-60
2022/06/18 00:03:21;;;;;;;;;14.80;14.80;;;;;30.24;34.17;101349.22;2106573;27;47740;-60
2022/06/18 00:04:23;;;;;;;;;11.00;10.75;;;;;30.25;33.58;101344.63;2105691;28;47795;-61
2022/06/18 00:05:24;;;;;;;;;12.80;12.80;;;;;30.24;33.65;101351.06;2106573;27;47532;-61
2022/06/18 00:06:25;;;;;;;;;13.50;13.50;;;;;30.24;33.95;101348.31;2105623;28;47316;-61
2022/06/18 00:07:25;;;;;;;;;14.00;12.50;;;;;30.24;33.73;101340.13;2106440;27;47345;-60
2022/06/18 00:08:29;;;;;;;;;9.00;9.00;;;;;30.24;33.85;101340.13;2106689;27;47515;-61
2022/06/18 00:09:41;;;;;;;;;10.20;10.20;;;;;30.23;33.53;101344.72;2105805;28;45116;-59
2022/06/18 00:10:42;;;;;;;;;11.00;11.00;;;;;30.23;33.25;101338.38;2104706;27;47716;-61
2022/06/18 00:13:41;;;;;;;;;11.60;11.60;;;;;30.21;33.81;101338.53;2097404;28;46351;-61
2022/06/18 00:14:42;;;;;;;;;9.80;9.80;;;;;30.18;33.63;101334.22;2103314;27;48031;-62
2022/06/18 00:15:42;;;;;;;;;11.25;11.25;;;;;30.18;33.61;101333.38;2104586;28;47486;-61
2022/06/18 00:16:43;;;;;;;;;9.50;8.50;;;;;30.18;33.65;101333.38;2106440;27;47895;-60
2022/06/18 00:17:44;;;;;;;;;8.50;8.50;;;;;30.17;33.31;101332.50;2105253;28;47464;-60
2022/06/18 00:18:45;;;;;;;;;9.80;9.00;;;;;30.17;33.44;101328.91;2103616;27;45685;-61
2022/06/18 00:19:47;;;;;;;;;11.50;11.50;;;;;30.16;33.96;101329.91;2088108;28;47500;-60
2022/06/18 00:20:47;;;;;;;;;9.20;9.20;;;;;30.17;33.46;101334.38;2087784;28;47786;-61
2022/06/18 00:21:48;;;;;;;;;10.75;8.00;;;;;30.15;33.43;101329.06;2105605;27;47366;-59
2022/06/18 00:22:52;;;;;;;;;11.75;11.75;;;;;30.14;33.30;101332.81;2098265;28;47432;-60
2022/06/18 00:23:52;;;;;;;;;10.40;10.40;;;;;30.14;33.56;101335.53;2097029;28;45379;-61
2022/06/18 00:24:53;;;;;;;;;8.50;8.00;;;;;30.13;33.86;101331.06;2106424;27;47479;-61
2022/06/18 00:25:54;;;;;;;;;10.75;10.75;;;;;30.12;33.42;101326.59;2106295;27;47426;-61
2022/06/18 00:26:54;;;;;;;;;9.00;9.00;;;;;30.12;33.65;101329.34;2105151;28;47179;-60
2022/06/18 00:27:55;;;;;;;;;9.50;9.50;;;;;30.10;33.27;101325.88;2101680;27;47701;-61
2022/06/18 00:28:55;;;;;;;;;10.00;10.00;;;;;30.10;33.31;101322.25;2105420;28;45211;-60
2022/06/18 00:29:56;;;;;;;;;7.00;7.00;;;;;30.09;33.05;101320.53;2102770;27;47797;-60
2022/06/18 00:30:57;;;;;;;;;8.50;8.50;;;;;30.09;33.31;101321.41;2105391;27;47672;-60
2022/06/18 00:31:57;;;;;;;;;8.00;8.00;;;;;30.08;33.32;101316.06;2105685;27;47757;-60
2022/06/18 00:32:58;;;;;;;;;11.25;11.25;;;;;30.07;33.44;101320.69;2106248;27;48166;-59
2022/06/18 00:33:58;;;;;;;;;9.00;9.00;;;;;30.07;33.47;101326.16;2105143;28;47490;-60
2022/06/18 00:34:59;;;;;;;;;9.75;9.00;;;;;30.06;33.40;101321.69;2106304;27;47752;-60
2022/06/18 00:36:02;;;;;;;;;9.00;9.00;;;;;30.07;33.34;101326.16;2106371;27;47610;-61
2022/06/18 00:37:05;;;;;;;;;9.00;9.00;;;;;30.06;33.71;101324.44;2105216;28;46407;-61
2022/06/18 00:38:10;;;;;;;;;8.40;8.40;;;;;30.06;33.61;101323.56;2106002;27;47969;-59
2022/06/18 00:39:13;;;;;;;;;8.20;8.00;;;;;30.06;33.46;101327.16;2106551;27;47498;-60
2022/06/18 00:40:17;;;;;;;;;7.00;6.80;;;;;30.04;33.31;101325.56;2103321;28;48096;-59
2022/06/18 00:41:26;;;;;;;;;5.40;5.40;;;;;30.04;33.55;101322.81;2106399;27;47600;-61
2022/06/18 00:42:30;;;;;;;;;8.80;8.80;;;;;30.03;33.54;101327.44;2083491;28;48000;-61
2022/06/18 00:43:36;;;;;;;;;7.80;7.80;;;;;30.02;33.47;101328.44;2088093;28;47607;-59
2022/06/18 00:44:38;;;;;;;;;7.80;7.80;;;;;30.03;33.81;101326.56;2104813;27;47860;-61
2022/06/18 00:45:39;;;;;;;;;9.60;9.20;;;;;30.02;33.41;101333.06;2106305;27;47907;-61
2022/06/18 00:46:56;;;;;;;;;6.00;6.00;;;;;30.00;33.57;101327.72;2104737;28;47438;-59
2022/06/18 00:48:25;;;;;;;;;7.60;7.60;;;;;29.99;33.42;101331.47;2106337;27;47500;-60
2022/06/18 00:49:37;;;;;;;;;10.80;10.80;;;;;29.99;33.52;101331.47;2106236;27;47571;-61
2022/06/18 00:50:49;;;;;;;;;8.80;8.80;;;;;29.99;33.46;101333.34;2106393;27;47612;-61
2022/06/18 00:51:54;;;;;;;;;8.60;8.40;;;;;29.98;33.75;101337.94;2105074;28;47430;-61
2022/06/18 00:53:10;;;;;;;;;8.40;8.40;;;;;29.97;33.54;101333.47;2106218;27;47980;-60
2022/06/18 00:54:22;;;;;;;;;6.60;5.80;;;;;29.96;33.30;101330.88;2106381;27;47357;-60
2022/06/18 00:55:28;;;;;;;;;6.60;6.60;;;;;29.96;33.62;101333.63;2103667;27;47608;-61
2022/06/18 00:56:38;;;;;;;;;5.60;5.60;;;;;29.96;33.85;101336.34;2098408;28;47800;-61
2022/06/18 00:58:01;;;;;;;;;9.40;9.40;;;;;29.94;33.59;101333.75;2104278;27;47585;-60
2022/06/18 00:59:11;;;;;;;;;7.20;7.20;;;;;29.94;33.52;101331.03;2069192;28;47643;-61
2022/06/18 01:00:19;;;;;;;;;7.20;6.60;;;;;29.94;33.50;101336.50;2071847;28;47612;-60
2022/06/18 01:01:32;;;;;;;;;8.20;8.20;;;;;29.93;33.42;101332.03;2070643;28;47893;-61
2022/06/18 01:02:40;;;;;;;;;7.20;7.20;;;;;29.93;33.62;101329.31;2072086;28;47670;-60
2022/06/18 01:03:43;;;;;;;;;6.00;6.00;;;;;29.91;33.42;101334.06;2068186;28;47911;-61
2022/06/18 01:04:44;;;;;;;;;8.40;8.40;;;;;29.91;33.02;101333.19;2070995;28;48073;-61
2022/06/18 01:05:44;;;;;;;;;8.00;8.00;;;;;29.89;33.48;101330.59;2071724;28;47786;-61
2022/06/18 01:06:45;;;;;;;;;7.00;7.00;;;;;29.89;33.59;101327.88;2072321;28;47430;-60
2022/06/18 01:07:49;;;;;;;;;7.00;7.00;;;;;29.89;33.45;101328.72;2071104;28;47781;-61
2022/06/18 01:09:06;;;;;;;;;7.40;6.00;;;;;29.88;33.43;101329.75;2069625;28;47624;-60
2022/06/18 01:10:15;;;;;;;;;8.80;8.80;;;;;29.88;33.54;101332.47;2070471;28;47838;-60
2022/06/18 01:11:27;;;;;;;;;9.60;8.40;;;;;29.86;33.01;101329.03;2062593;28;48108;-60
2022/06/18 01:12:28;;;;;;;;;6.80;6.40;;;;;29.87;33.50;101333.50;2055686;28;47675;-60
2022/06/18 01:13:37;;;;;;;;;6.40;6.40;;;;;29.86;33.25;101330.91;2062091;28;47931;-60
2022/06/18 01:14:38;;;;;;;;;7.20;7.20;;;;;29.86;33.60;101319.97;2070803;28;47392;-60
2022/06/18 01:15:41;;;;;;;;;8.60;7.40;;;;;29.85;33.56;101323.66;2070740;28;48056;-61
2022/06/18 01:16:42;;;;;;;;;9.00;9.00;;;;;29.85;33.29;101329.16;2070771;28;47838;-59
2022/06/18 01:17:42;;;;;;;;;8.25;7.25;;;;;29.84;33.58;101324.69;2070043;28;47610;-61
2022/06/18 01:18:43;;;;;;;;;7.75;7.75;;;;;29.83;33.34;101326.56;2070733;28;47031;-61
2022/06/18 01:19:48;;;;;;;;;6.50;6.50;;;;;29.84;33.61;101331.03;2070074;28;47691;-60
2022/06/18 01:20:52;;;;;;;;;8.40;8.40;;;;;29.83;33.60;101325.69;2070619;28;47443;-59
2022/06/18 01:22:14;;;;;;;;;8.00;8.00;;;;;29.83;33.39;101325.69;2070651;28;47675;-60
2022/06/18 01:23:25;;;;;;;;;7.20;7.20;;;;;29.83;33.66;101329.28;2070404;28;47873;-60
2022/06/18 01:24:39;;;;;;;;;8.00;8.00;;;;;29.82;33.37;101324.81;2069987;28;47620;-60
2022/06/18 01:25:40;;;;;;;;;7.20;6.40;;;;;29.82;33.43;101326.69;2070427;28;47606;-60
2022/06/18 01:26:43;;;;;;;;;7.00;7.00;;;;;29.81;33.52;101328.56;2049605;28;47570;-60
2022/06/18 01:27:43;;;;;;;;;6.40;6.40;;;;;29.80;33.70;101323.25;2050232;28;47654;-61
2022/06/18 01:28:44;;;;;;;;;8.25;8.00;;;;;29.80;33.43;101324.13;2070368;28;47361;-60
2022/06/18 01:29:44;;;;;;;;;8.25;8.25;;;;;29.80;33.61;101321.38;2071100;28;47270;-60
2022/06/18 01:30:45;;;;;;;;;7.75;7.75;;;;;29.79;33.40;101313.31;2069834;28;48030;-60
2022/06/18 01:31:47;;;;;;;;;9.00;9.00;;;;;29.79;33.44;101322.38;2062750;28;47631;-61
2022/06/18 01:32:51;;;;;;;;;7.80;7.40;;;;;29.78;33.57;101315.19;2061796;28;47537;-60
2022/06/18 01:33:51;;;;;;;;;7.40;7.40;;;;;29.78;33.44;101314.31;2070187;28;47646;-60
2022/06/18 01:34:52;;;;;;;;;8.50;8.00;;;;;29.76;33.63;101317.22;2070533;28;48035;-60
2022/06/18 01:35:54;;;;;;;;;7.50;7.50;;;;;29.76;33.87;101313.59;2054202;28;47565;-61
2022/06/18 01:36:59;;;;;;;;;6.00;6.00;;;;;29.76;33.93;101316.34;2069986;28;48382;-60
2022/06/18 01:37:59;;;;;;;;;10.60;9.00;;;;;29.75;33.80;101315.47;2096535;28;47856;-61
2022/06/18 01:39:03;;;;;;;;;8.50;8.50;;;;;29.75;33.76;101320.94;2101171;28;47670;-60
2022/06/18 01:40:04;;;;;;;;;7.00;6.80;;;;;29.74;33.58;101323.84;2104968;28;47766;-60
2022/06/18 01:41:51;;;;;;;;;8.40;8.00;;;;;29.74;33.68;101318.38;2104656;27;48148;-60
2022/06/18 01:42:56;;;;;;;;;6.00;6.00;;;;;29.74;33.91;101323.84;2070482;28;46738;-60
2022/06/18 01:44:01;;;;;;;;;5.60;5.60;;;;;29.72;33.92;101306.66;2070370;28;48111;-60
2022/06/18 01:45:10;;;;;;;;;7.20;7.20;;;;;29.71;33.87;101311.28;2070600;28;47558;-60
2022/06/18 01:46:10;;;;;;;;;8.00;6.80;;;;;29.71;33.58;101311.28;2070826;28;47872;-60
2022/06/18 01:47:16;;;;;;;;;8.00;8.00;;;;;29.70;33.74;101312.28;2070563;28;47364;-60
2022/06/18 01:48:23;;;;;;;;;5.00;5.00;;;;;29.70;33.60;101315.03;2070787;28;47934;-61
2022/06/18 01:49:43;;;;;;;;;8.60;7.80;;;;;29.69;33.83;101312.44;2070604;28;47713;-60
2022/06/18 01:50:51;;;;;;;;;7.00;7.00;;;;;29.67;33.71;101307.09;2069623;28;47765;-61
2022/06/18 01:51:54;;;;;;;;;9.40;9.40;;;;;29.67;33.63;101306.25;2070632;28;48178;-61
2022/06/18 01:53:11;;;;;;;;;6.00;6.00;;;;;29.66;33.69;101304.53;2070489;28;47855;-60
2022/06/18 01:54:17;;;;;;;;;6.40;6.40;;;;;29.67;33.66;101307.09;2061968;28;47501;-61
2022/06/18 01:55:42;;;;;;;;;7.80;6.60;;;;;29.66;33.63;101304.53;2063143;28;47836;-59
2022/06/18 01:56:47;;;;;;;;;7.60;5.40;;;;;29.65;33.77;101303.66;2062567;28;47818;-60
2022/06/18 01:57:53;;;;;;;;;7.80;7.80;;;;;29.64;33.88;101295.59;2068249;28;47877;-60
2022/06/18 01:59:01;;;;;;;;;8.00;8.00;;;;;29.64;33.82;101301.06;2069948;28;47877;-61
2022/06/18 02:00:16;;;;;;;;;7.40;7.40;;;;;29.64;34.01;101298.34;2070453;28;47686;-61
2022/06/18 02:01:25;;;;;;;;;6.80;6.60;;;;;29.64;33.71;101298.34;2077318;28;48257;-60
2022/06/18 02:02:26;;;;;;;;;5.80;5.80;;;;;29.63;33.88;101297.47;2068390;28;48237;-60
2022/06/18 02:03:26;;;;;;;;;8.00;8.00;;;;;29.63;34.18;101302.94;2054406;28;47250;-61
2022/06/18 02:04:27;;;;;;;;;6.50;6.50;;;;;29.64;33.79;101295.59;2063417;28;47346;-60
2022/06/18 02:05:29;;;;;;;;;8.80;8.00;;;;;29.64;33.82;101301.06;2071425;28;47498;-60
2022/06/18 02:06:32;;;;;;;;;7.40;7.20;;;;;29.63;33.76;101294.75;2078179;28;46600;-60
2022/06/18 02:07:35;;;;;;;;;8.40;8.40;;;;;29.64;33.96;101292.88;2079104;28;47564;-60
2022/06/18 02:08:37;;;;;;;;;9.20;9.20;;;;;29.63;34.25;101293.88;2079848;28;47600;-61
2022/06/18 02:09:44;;;;;;;;;7.40;7.20;;;;;29.62;34.17;101290.28;2075619;28;47582;-60
2022/06/18 02:11:12;;;;;;;;;7.40;7.40;;;;;29.63;34.38;101291.13;2078237;28;48128;-61
2022/06/18 02:12:18;;;;;;;;;6.80;6.80;;;;;29.62;34.09;101292.16;2062601;28;47947;-60
2022/06/18 02:13:22;;;;;;;;;9.60;8.20;;;;;29.60;34.34;101286.78;2062309;28;48076;-59
2022/06/18 02:14:25;;;;;;;;;7.00;7.00;;;;;29.58;34.77;101286.06;2062134;28;48433;-60
2022/06/18 02:15:34;;;;;;;;;9.60;9.60;;;;;29.58;34.42;101288.81;2063441;28;47555;-60
2022/06/18 02:16:41;;;;;;;;;9.20;8.00;;;;;29.57;34.26;101290.69;2062501;28;48248;-60
2022/06/18 02:17:42;;;;;;;;;9.60;9.60;;;;;29.56;34.38;101286.22;2062167;28;48038;-60
2022/06/18 02:18:45;;;;;;;;;10.00;10.00;;;;;29.56;34.50;101288.97;2063364;28;48232;-61
2022/06/18 02:19:53;;;;;;;;;7.60;7.60;;;;;29.56;34.32;101286.22;2069391;28;48104;-60
2022/06/18 02:20:56;;;;;;;;;8.60;8.40;;;;;29.54;34.39;101290.97;2070640;28;47440;-59
2022/06/18 02:21:59;;;;;;;;;8.80;8.80;;;;;29.54;34.36;101280.03;2076343;28;47948;-60
2022/06/18 02:23:00;;;;;;;;;8.80;8.40;;;;;29.53;34.51;101289.25;2078755;28;46409;-59
2022/06/18 02:24:00;;;;;;;;;7.50;7.50;;;;;29.53;34.75;101291.13;2079681;28;47964;-61
2022/06/18 02:25:01;;;;;;;;;10.50;9.00;;;;;29.51;34.37;101295.88;2079382;28;46388;-60
2022/06/18 02:26:03;;;;;;;;;8.25;8.25;;;;;29.52;34.37;101289.41;2078800;28;47938;-60
2022/06/18 02:27:04;;;;;;;;;8.40;8.40;;;;;29.50;34.35;101288.69;2078836;28;47647;-60
2022/06/18 02:28:15;;;;;;;;;8.50;8.50;;;;;29.50;34.86;101284.06;2079177;28;48073;-60
2022/06/18 02:29:23;;;;;;;;;8.20;8.20;;;;;29.50;34.47;101291.41;2078439;28;47214;-61
2022/06/18 02:30:27;;;;;;;;;9.00;9.00;;;;;29.49;34.47;101279.59;2078934;28;47709;-61
2022/06/18 02:31:33;;;;;;;;;9.20;9.20;;;;;29.49;34.38;101285.06;2078605;28;47834;-59
2022/06/18 02:32:42;;;;;;;;;8.60;8.60;;;;;29.49;34.41;101286.94;2078511;28;47623;-60
2022/06/18 02:33:49;;;;;;;;;8.40;8.40;;;;;29.48;34.69;101283.34;2079014;28;47787;-60
2022/06/18 02:34:49;;;;;;;;;9.00;9.00;;;;;29.48;34.50;101277.03;2079305;28;47523;-61
2022/06/18 02:35:50;;;;;;;;;7.25;7.25;;;;;29.48;34.55;101275.16;2078692;28;47209;-61
2022/06/18 02:36:50;;;;;;;;;9.25;9.25;;;;;29.48;34.73;101274.28;2070762;28;47469;-60
2022/06/18 02:37:51;;;;;;;;;10.00;10.00;;;;;29.47;34.72;101276.13;2069744;28;47515;-60
2022/06/18 02:38:59;;;;;;;;;9.50;9.50;;;;;29.47;34.24;101278.00;2070438;28;47870;-61
2022/06/18 02:40:02;;;;;;;;;8.00;8.00;;;;;29.47;34.48;101278.00;2071237;28;46721;-60
2022/06/18 02:41:02;;;;;;;;;9.40;9.20;;;;;29.46;34.39;101282.56;2070758;28;47715;-61
2022/06/18 02:42:10;;;;;;;;;7.00;6.50;;;;;29.46;34.46;101271.63;2070416;28;47941;-60
2022/06/18 02:43:12;;;;;;;;;8.60;8.60;;;;;29.46;34.40;101276.25;2070782;28;48060;-60
2022/06/18 02:44:13;;;;;;;;;12.20;10.80;;;;;29.44;34.63;101273.66;2070954;28;47604;-59
2022/06/18 02:45:18;;;;;;;;;6.80;6.80;;;;;29.44;34.77;101272.78;2070034;28;47861;-59
2022/06/18 02:46:19;;;;;;;;;9.60;9.60;;;;;29.44;34.74;101273.66;2071130;28;47641;-60
2022/06/18 02:47:21;;;;;;;;;10.75;10.75;;;;;29.44;35.14;101270.06;2076877;28;47646;-61
2022/06/18 02:48:26;;;;;;;;;9.00;9.00;;;;;29.44;34.86;101267.31;2070304;28;47695;-60
2022/06/18 02:49:27;;;;;;;;;5.60;5.60;;;;;29.44;34.67;101262.72;2078674;28;47829;-60
2022/06/18 02:50:31;;;;;;;;;10.50;10.50;;;;;29.44;34.94;101265.44;2099716;27;47968;-60
2022/06/18 02:51:33;;;;;;;;;9.00;9.00;;;;;29.44;35.10;101259.97;2106349;27;47524;-61
2022/06/18 02:52:39;;;;;;;;;10.00;10.00;;;;;29.42;35.04;101258.41;2108880;27;47771;-60
2022/06/18 02:53:40;;;;;;;;;10.00;10.00;;;;;29.42;34.93;101251.06;2100730;28;48053;-61
2022/06/18 02:54:41;;;;;;;;;9.20;9.20;;;;;29.42;35.07;101251.06;2096027;28;47670;-60
2022/06/18 02:55:45;;;;;;;;;10.00;10.00;;;;;29.41;35.11;101249.34;2105020;27;47563;-60
2022/06/18 02:56:48;;;;;;;;;10.00;10.00;;;;;29.40;35.02;101246.75;2096009;28;47373;-61
2022/06/18 02:57:52;;;;;;;;;9.40;9.40;;;;;29.40;35.02;101246.75;2101880;27;47479;-60
2022/06/18 02:58:53;;;;;;;;;9.20;9.20;;;;;29.41;34.92;101240.25;2105113;27;48294;-59
2022/06/18 02:59:54;;;;;;;;;9.50;9.50;;;;;29.40;34.76;101249.47;2094806;28;47534;-60
2022/06/18 03:00:58;;;;;;;;;9.25;9.25;;;;;29.39;35.05;101243.16;2096345;28;47422;-60
2022/06/18 03:01:58;;;;;;;;;8.40;8.40;;;;;29.40;35.05;101244.00;2104266;28;47889;-59
2022/06/18 03:02:59;;;;;;;;;11.50;8.75;;;;;29.39;35.17;101237.69;2105157;27;47703;-59
2022/06/18 03:04:01;;;;;;;;;11.25;9.25;;;;;29.38;35.16;101243.28;2105142;27;47645;-60
2022/06/18 03:05:01;;;;;;;;;6.60;6.60;;;;;29.38;34.77;101241.41;2104241;28;48057;-59
2022/06/18 03:06:02;;;;;;;;;9.25;9.25;;;;;29.38;34.69;101237.81;2096063;28;47517;-60
2022/06/18 03:07:03;;;;;;;;;8.60;8.60;;;;;29.38;35.04;101244.16;2096240;28;47282;-59
2022/06/18 03:08:05;;;;;;;;;8.00;8.00;;;;;29.37;34.81;101238.84;2103223;28;47427;-61
2022/06/18 03:09:05;;;;;;;;;8.80;8.80;;;;;29.36;35.16;101237.97;2104099;27;47956;-60
2022/06/18 03:12:46;;;;;;;;;10.60;10.60;;;;;29.33;35.13;101230.03;2104692;27;47799;-61
2022/06/18 03:13:47;;;;;;;;;12.00;11.75;;;;;29.31;35.46;101232.91;2105321;27;47657;-60
2022/06/18 03:14:47;;;;;;;;;9.00;9.00;;;;;29.32;35.06;101233.78;2104118;28;47818;-61
2022/06/18 03:15:50;;;;;;;;;11.00;9.50;;;;;29.32;34.96;101222.84;2105432;27;47445;-61
2022/06/18 03:16:50;;;;;;;;;9.80;9.80;;;;;29.30;35.39;101225.72;2105180;27;47937;-60
2022/06/18 03:17:52;;;;;;;;;10.00;10.00;;;;;29.30;35.12;101217.50;2104373;28;47463;-59
2022/06/18 03:18:55;;;;;;;;;10.20;10.20;;;;;29.29;35.16;101217.66;2104895;27;47363;-62
2022/06/18 03:20:04;;;;;;;;;7.80;7.80;;;;;29.27;35.16;101217.81;2105333;27;47837;-62
2022/06/18 03:21:39;;;;;;;;;8.40;8.40;;;;;29.27;35.30;101216.94;2104470;28;47526;-60
2022/06/18 03:22:40;;;;;;;;;9.20;9.00;;;;;29.27;35.23;101212.34;2104115;28;47492;-60
2022/06/18 03:23:45;;;;;;;;;9.80;9.20;;;;;29.27;35.17;101215.06;2104893;27;48092;-62
2022/06/18 03:24:46;;;;;;;;;10.60;10.60;;;;;29.25;34.87;101210.75;2104808;27;47835;-60
2022/06/18 03:25:47;;;;;;;;;9.50;9.25;;;;;29.24;35.30;101214.50;2086923;28;47620;-62
2022/06/18 03:26:47;;;;;;;;;11.00;11.00;;;;;29.24;34.88;101211.75;2087542;28;47884;-60
2022/06/18 03:27:47;;;;;;;;;11.00;11.00;;;;;29.23;35.46;101210.03;2104261;28;48041;-62
2022/06/18 03:28:48;;;;;;;;;13.00;13.00;;;;;29.22;35.39;101208.28;2104858;27;47692;-61
2022/06/18 03:29:52;;;;;;;;;11.75;11.75;;;;;29.21;35.56;101206.56;2104680;27;47651;-61
2022/06/18 03:30:52;;;;;;;;;10.80;10.80;;;;;29.22;35.60;101205.56;2103854;27;48031;-60
2022/06/18 03:31:53;;;;;;;;;10.50;10.50;;;;;29.20;35.23;101197.50;2104783;27;47540;-61
2022/06/18 03:32:53;;;;;;;;;10.25;10.25;;;;;29.20;35.32;101204.84;2105959;27;47548;-60
2022/06/18 03:33:53;;;;;;;;;10.25;10.25;;;;;29.19;35.14;101198.50;2094296;28;48344;-60
2022/06/18 03:34:54;;;;;;;;;8.75;8.75;;;;;29.19;35.36;101201.22;2090018;28;47724;-61
2022/06/18 03:35:55;;;;;;;;;9.25;9.25;;;;;29.19;35.18;101192.16;2104263;27;47923;-61
2022/06/18 03:36:56;;;;;;;;;7.00;7.00;;;;;29.19;35.37;101194.91;2104538;27;48324;-61
2022/06/18 03:37:57;;;;;;;;;10.80;10.00;;;;;29.18;35.11;101193.19;2105160;27;47952;-60
2022/06/18 03:38:57;;;;;;;;;10.00;10.00;;;;;29.18;35.25;101191.31;2103995;28;48253;-61
2022/06/18 03:39:58;;;;;;;;;7.50;7.50;;;;;29.16;34.89;101193.31;2095012;28;47135;-60
2022/06/18 03:40:58;;;;;;;;;10.00;10.00;;;;;29.16;35.25;101193.31;2096055;28;47161;-61
2022/06/18 03:41:59;;;;;;;;;8.00;7.00;;;;;29.15;35.18;101188.00;2104277;28;47175;-60
2022/06/18 03:42:59;;;;;;;;;9.00;9.00;;;;;29.15;35.11;101191.59;2105165;27;47371;-60
2022/06/18 03:44:00;;;;;;;;;11.00;11.00;;;;;29.14;35.08;101189.88;2103778;27;47031;-60
2022/06/18 03:45:00;;;;;;;;;10.25;10.25;;;;;29.14;34.92;101191.75;2104669;27;47436;-59
2022/06/18 03:46:07;;;;;;;;;8.75;8.75;;;;;29.13;34.61;101188.16;2095068;28;47264;-62
2022/06/18 03:47:08;;;;;;;;;9.80;9.20;;;;;29.12;34.68;101189.16;2099946;28;47588;-60
2022/06/18 03:48:18;;;;;;;;;7.25;7.25;;;;;29.13;34.75;101188.16;2105061;27;47735;-60
2022/06/18 03:49:26;;;;;;;;;7.00;7.00;;;;;29.12;34.77;101194.63;2103406;27;47775;-59
2022/06/18 03:50:27;;;;;;;;;7.00;7.00;;;;;29.12;34.95;101191.03;2096028;27;47657;-60
2022/06/18 03:51:28;;;;;;;;;7.75;7.75;;;;;29.11;35.01;101192.91;2105929;27;47928;-59
2022/06/18 03:52:29;;;;;;;;;8.80;8.20;;;;;29.11;34.95;101190.16;2109446;27;48073;-60
2022/06/18 03:53:29;;;;;;;;;7.50;7.50;;;;;29.11;34.70;101192.03;2108812;27;47689;-60
2022/06/18 03:54:30;;;;;;;;;8.25;8.25;;;;;29.09;34.51;101192.16;2105797;27;47388;-61
2022/06/18 03:55:31;;;;;;;;;8.75;7.25;;;;;29.10;34.89;101187.59;2103787;27;47516;-60
2022/06/18 03:56:32;;;;;;;;;9.40;9.40;;;;;29.09;34.75;101185.81;2097686;27;47514;-60
2022/06/18 03:57:33;;;;;;;;;7.60;7.60;;;;;29.08;34.69;101186.84;2099474;27;47261;-60
2022/06/18 03:58:33;;;;;;;;;7.75;7.75;;;;;29.08;35.02;101192.28;2104027;28;47367;-61
2022/06/18 03:59:34;;;;;;;;;7.75;7.00;;;;;29.08;34.66;101189.56;2086869;28;45583;-60
2022/06/18 04:00:35;;;;;;;;;7.60;7.60;;;;;29.08;34.77;101189.56;2087193;28;48039;-60
2022/06/18 04:01:40;;;;;;;;;7.40;7.40;;;;;29.06;34.80;101183.38;2096204;27;47701;-60
2022/06/18 04:02:40;;;;;;;;;7.00;7.00;;;;;29.05;34.70;101190.72;2099467;27;48238;-61
2022/06/18 04:03:40;;;;;;;;;6.25;6.25;;;;;29.05;34.60;101189.84;2095438;28;47947;-60
2022/06/18 04:04:41;;;;;;;;;7.50;6.25;;;;;29.04;34.70;101190.88;2095786;28;47322;-60
2022/06/18 04:05:42;;;;;;;;;8.75;6.00;;;;;29.04;34.73;101188.13;2105998;27;47563;-60
2022/06/18 04:06:43;;;;;;;;;7.25;7.25;;;;;29.03;34.69;101192.72;2105701;28;47800;-60
2022/06/18 04:07:43;;;;;;;;;7.00;7.00;;;;;29.02;34.64;101191.88;2106270;27;47625;-60
2022/06/18 04:08:45;;;;;;;;;9.00;9.00;;;;;29.02;34.61;101191.00;2106375;27;47338;-59
2022/06/18 04:09:46;;;;;;;;;7.40;7.40;;;;;29.03;34.29;101192.72;2105427;28;48263;-59
2022/06/18 04:10:47;;;;;;;;;5.00;5.00;;;;;29.02;34.66;101186.41;2097322;28;47764;-61
2022/06/18 04:11:47;;;;;;;;;7.40;7.40;;;;;29.02;34.75;101191.88;2097524;27;48168;-59
2022/06/18 04:12:48;;;;;;;;;8.25;7.50;;;;;29.02;34.59;101193.75;2105399;27;47577;-60
2022/06/18 04:13:49;;;;;;;;;6.00;6.00;;;;;29.01;34.79;101186.53;2105399;27;47750;-61
2022/06/18 04:14:49;;;;;;;;;6.50;6.00;;;;;29.02;34.73;101186.41;2105254;28;47614;-62
2022/06/18 04:15:50;;;;;;;;;6.50;6.50;;;;;29.00;34.74;101188.41;2106446;27;47345;-60
2022/06/18 04:16:50;;;;;;;;;7.00;7.00;;;;;29.01;34.74;101189.28;2106513;27;47325;-59
2022/06/18 04:17:51;;;;;;;;;9.00;9.00;;;;;29.01;34.49;101181.09;2105082;28;47191;-59
2022/06/18 04:18:52;;;;;;;;;7.25;7.25;;;;;29.00;34.93;101182.97;2105994;27;47918;-58
2022/06/18 04:19:52;;;;;;;;;7.25;7.25;;;;;28.99;34.80;101183.97;2106169;27;47747;-59
2022/06/18 04:20:53;;;;;;;;;9.00;7.50;;;;;29.00;34.80;101179.34;2105454;27;47221;-59
2022/06/18 04:21:54;;;;;;;;;7.40;7.40;;;;;29.00;34.56;101177.50;2105336;27;47440;-60
2022/06/18 04:22:56;;;;;;;;;7.00;7.00;;;;;29.00;34.74;101176.63;2103356;28;47707;-61
2022/06/18 04:23:56;;;;;;;;;6.20;6.20;;;;;28.99;35.00;101175.75;2106403;27;46738;-60
2022/06/18 04:24:56;;;;;;;;;7.00;7.00;;;;;28.99;35.11;101177.63;2106241;27;47674;-61
2022/06/18 04:25:58;;;;;;;;;7.25;7.25;;;;;28.99;34.50;101174.91;2105442;28;47989;-60
2022/06/18 04:26:59;;;;;;;;;8.20;8.20;;;;;28.98;34.61;101174.03;2105163;27;47803;-60
2022/06/18 04:28:00;;;;;;;;;7.00;7.00;;;;;28.98;34.73;101174.03;2105167;27;47845;-59
2022/06/18 04:29:00;;;;;;;;;7.75;7.75;;;;;28.98;34.74;101179.50;2105101;28;47384;-61
2022/06/18 04:30:01;;;;;;;;;8.00;8.00;;;;;28.95;34.22;101174.28;2106692;27;47335;-60
2022/06/18 04:31:02;;;;;;;;;7.00;7.00;;;;;28.96;34.59;101172.44;2105410;28;47370;-59
2022/06/18 04:32:04;;;;;;;;;8.80;8.80;;;;;28.96;34.59;101166.97;2097618;28;47467;-60
2022/06/18 04:33:05;;;;;;;;;6.00;6.00;;;;;28.95;34.80;101173.44;2097538;28;47217;-60
2022/06/18 04:34:05;;;;;;;;;7.20;7.20;;;;;28.94;34.55;101163.50;2095393;28;47710;-60
2022/06/18 04:35:08;;;;;;;;;7.75;7.75;;;;;28.93;34.59;101170.84;2096683;28;47650;-60
2022/06/18 04:36:36;;;;;;;;;6.20;6.20;;;;;28.93;34.59;101169.97;2106267;27;48336;-60
2022/06/18 04:37:37;;;;;;;;;6.40;6.20;;;;;28.92;34.66;101171.84;2100295;27;48293;-60
2022/06/18 04:38:37;;;;;;;;;8.00;8.00;;;;;28.91;34.73;101164.66;2105906;27;48019;-61
2022/06/18 04:39:37;;;;;;;;;6.50;6.50;;;;;28.91;34.30;101172.00;2106124;27;47211;-61
2022/06/18 04:40:38;;;;;;;;;8.25;7.50;;;;;28.91;34.52;101167.41;2105227;28;47515;-62
2022/06/18 04:41:39;;;;;;;;;8.00;8.00;;;;;28.91;34.27;101164.66;2097341;28;47752;-60
2022/06/18 04:42:39;;;;;;;;;7.00;7.00;;;;;28.91;34.26;101166.53;2097299;28;48401;-61
2022/06/18 04:43:40;;;;;;;;;7.25;7.25;;;;;28.91;34.56;101166.53;2105184;28;48036;-59
2022/06/18 04:44:40;;;;;;;;;8.00;8.00;;;;;28.92;34.52;101171.84;2106029;27;47872;-60
2022/06/18 04:45:41;;;;;;;;;9.00;9.00;;;;;28.91;34.30;101174.72;2105522;27;47889;-60
2022/06/18 04:46:41;;;;;;;;;8.00;8.00;;;;;28.91;34.70;101172.00;2107592;27;47646;-60
2022/06/18 04:47:41;;;;;;;;;8.50;8.50;;;;;28.92;34.84;101176.47;2102881;27;47904;-60
2022/06/18 04:48:42;;;;;;;;;9.50;9.00;;;;;28.90;34.70;101176.59;2105081;28;47870;-60
2022/06/18 04:49:42;;;;;;;;;9.00;9.00;;;;;28.91;34.83;101177.47;2104962;27;47632;-59
2022/06/18 04:50:43;;;;;;;;;7.25;7.25;;;;;28.92;34.65;101184.66;2106085;27;47290;-60
2022/06/18 04:51:43;;;;;;;;;6.00;6.00;;;;;28.92;34.85;101190.13;2108672;27;47219;-59
2022/06/18 04:52:44;;;;;;;;;7.00;7.00;;;;;28.91;34.51;101189.25;2109206;27;47707;-60
2022/06/18 04:53:44;;;;;;;;;9.25;9.25;;;;;28.91;34.69;101196.59;2111715;27;47642;-60
2022/06/18 04:54:45;;;;;;;;;8.00;7.75;;;;;28.91;34.43;101194.72;2105681;27;47699;-60
2022/06/18 04:55:45;;;;;;;;;7.75;7.75;;;;;28.92;34.76;101199.19;2105692;27;48067;-60
2022/06/18 04:56:46;;;;;;;;;10.50;8.50;;;;;28.92;34.97;101198.31;2096916;28;46493;-60
2022/06/18 04:57:46;;;;;;;;;8.75;8.75;;;;;28.93;34.49;101200.03;2101673;27;47755;-60
2022/06/18 04:58:46;;;;;;;;;10.00;10.00;;;;;28.93;34.83;101200.91;2105273;28;47411;-61